Station info - map view · info · telemetry · weather · raw · status · beacons · messages · bulletins · browse · moving · my account
Callsign, ship name or locator: Clear       
It is possible to search using wildcards (*?) after a prefix. Example: OH*
APRS station K7TT-9 - show graphs
Map loading...
Mic-E message: Off duty
Location: 45°13.77' N 123°10.17' W - locator CN85JF95PB - show map - static map
2.0 miles Northeast bearing 47° from McMinnville, Yamhill County, Oregon, United States [?]
2.8 miles West bearing 249° from Lafayette, Yamhill County, Oregon, United States
31.4 miles Southwest bearing 230° from Portland, Multnomah County, Oregon, United States
37.5 miles Southwest bearing 221° from Vancouver, Clark County, Washington, United States
Last position: 2018-09-03 18:18:22 EDT (20d 5h42m ago)
2018-09-03 15:18:22 PDT local time at McMinnville, United States [?]
Altitude: 161 ft
Course: 251°
Speed: 23 MPH
Device: Kenwood: TM-D700 (rig)
Last path: K7TT-9>TUQSWW via SADDLE,WOLF,KFALLS,WIDE2*,qAR,STUKEL (good)
Positions stored: 4128
Other SSIDs: K7TT-7 K7TT-8
Stations near current position of K7TT-9 - show more
callsign distance last heard - EDT      callsign distance last heard - EDT
W7YSR0.4 miles 208°2018-09-23 23:34:21 W7YAM-151.8 miles 223°2018-09-23 23:31:26
KI7ZLL-51.9 miles 223°2018-09-23 12:54:26 W7YAM-111.9 miles 261°2018-09-23 23:36:10
KI7ZLL-102.6 miles 140°2018-09-23 12:48:54 K7TT-83.0 miles 65°2018-09-23 20:07:44
KF7WXW3.5 miles 243°2018-09-23 23:31:56 AA1AO4.0 miles 104°2018-09-23 23:44:17
W7YAM5.7 miles 33°2018-09-23 23:59:50 W7YAM-55.9 miles 158°2018-09-23 23:53:09
EW00626.9 miles 51°2018-09-23 23:54:15 EW67017.0 miles 188°2018-09-24 00:00:17
AG7OG-27.6 miles 28°2018-09-13 15:51:21 KA7EMS-97.7 miles 223°2018-09-16 16:31:03
FW06667.7 miles 51°2018-09-24 00:00:36 DW72148.0 miles 171°2018-09-23 23:56:48
EW60208.5 miles 11°2018-09-24 00:00:36 W7YAM-108.6 miles 193°2018-09-23 23:36:10
W7YAM-128.6 miles 165°2018-09-23 23:36:10 W7OWO8.9 miles 59°2018-09-23 23:53:27
Stations which heard K7TT-9 directly on radio –
callsign pkts first heard - EDT last heard longest (tx => rx) longest at - EDT
HEBOWX 4 2018-09-02 11:46:29 2018-09-03 17:31:45 CN84MW > CN85CF 41.5 miles 296° 2018-09-02 17:26:42
LARCH 3 2018-09-02 17:51:50 2018-09-03 17:27:18 CN85NH > CN85UR 39.6 miles 46° 2018-09-03 17:27:18
W7GC-4 2 2018-09-02 11:41:27 2018-09-02 17:41:47 CN85ND > CN85CF 43.3 miles 275° 2018-09-02 17:41:47
IDIOTV 15 2018-09-02 11:41:31 2018-09-03 18:13:20 CN84MW > CN85HP 52.7 miles 337° 2018-09-02 17:26:44
LOKOUT 1 2018-09-02 12:01:40 2018-09-02 12:01:40 CN84LX > CN85WT 73.5 miles 40° 2018-09-02 12:01:40
MTHOOD 1 2018-09-03 14:25:08 2018-09-03 14:25:08 CN85NI > CN95DH 54.6 miles 94° 2018-09-03 14:25:08
RHODY 1 2018-09-03 14:20:04 2018-09-03 14:20:04 CN85NI > CN95BH 46.3 miles 92° 2018-09-03 14:20:04
W7SRA 1 2018-09-02 17:41:47 2018-09-02 17:41:47 CN85ND > CN84KU 24.9 miles 209° 2018-09-02 17:41:47
W7YAM-5 1 2018-09-02 21:49:44 2018-09-02 21:49:44 CN85KF > CN85KD 6.5 miles 185° 2018-09-02 21:49:44
BALDPK 7 2018-09-02 17:56:51 2018-09-03 18:13:18 CN85OH > CN85LJ 15.4 miles 297° 2018-09-02 20:59:14
NA7Q-9 3 2018-09-02 18:01:53 2018-09-03 17:01:29 CN85NI > CN85QL 13.2 miles 48° 2018-09-03 17:01:29
SADDLE 2 2018-09-02 17:36:45 2018-09-02 21:19:24 CN85MC > CN85HN 38.6 miles 326° 2018-09-02 17:36:45
W7YAM 4 2018-09-02 17:31:43 2018-09-03 18:18:20 CN85MA > CN85KH 19.9 miles 343° 2018-09-02 17:31:43
K7RMO-1 20 2018-09-03 13:54:16 2018-09-03 17:21:39 CN85OK > CN85MI 10.3 miles 229° 2018-09-03 15:09:08
KD7NRR-10 5 2018-09-02 12:01:37 2018-09-02 17:26:41 CN84LX > CN84MX 5.4 miles 89° 2018-09-02 12:01:37
MKSRDG 4 2018-09-02 11:46:28 2018-09-02 21:44:42 CN85LF > CN84PK 58.2 miles 162° 2018-09-02 21:44:42
WA7SUP 11 2018-09-02 17:46:48 2018-09-03 17:26:42 CN85OF > CN85MH 8.4 miles 312° 2018-09-02 17:46:48
NPLNS 14 2018-09-02 19:38:14 2018-09-03 17:11:33 CN85OH > CN85MP 24.1 miles 332° 2018-09-02 19:38:14

Only position packets which were originated by the station are shown here. The range statistics show some extra long hops, because some digipeaters do not correctly add themselves to the digipeater path. Please check the raw packets.
About this site
This page shows real-time information collected from the Automatic Position Reporting System Internet network (APRS-IS). APRS is used by amateur (ham) radio operators to transmit real-time position information, weather data, telemetry and messages over the radio. A vehicle equipped with a GPS receiver, a VHF transmitter or HF transceiver and a small computer device called a tracker transmits it's location, speed and course in a small data packet, which is then received by a nearby iGate receiving site which forwards the packet on the Internet. Systems connected to the Internet can send information on the APRS-IS without a radio transmitter, or collect and display information transmitted anywhere in the world.
FAQ · Blog · Discussion group · Linking to aprs.fi · AIS sites · Service status · Database statistics · Advertising on aprs.fi · Technical details · API · Change log · Planned changes · Credits and thanks · Terms Of Service · iPhone/iPad APRS